createdAt,value
2023-01-29T00:00:14.050Z,35.00
2023-01-29T00:05:27.113Z,36.90
2023-01-29T00:07:43.668Z,36.10
2023-01-29T00:09:56.089Z,32.20
2023-01-29T00:12:10.025Z,31.50
2023-01-29T00:14:23.243Z,37.30
2023-01-29T00:16:36.221Z,29.60
2023-01-29T00:18:52.039Z,32.90
2023-01-29T00:21:12.140Z,29.50
2023-01-29T00:23:25.457Z,26.90
2023-01-29T00:25:40.929Z,29.10
2023-01-29T00:27:53.556Z,27.00
2023-01-29T00:30:15.146Z,25.10
2023-01-29T00:32:28.581Z,26.40
2023-01-29T00:34:42.025Z,21.90
2023-01-29T00:37:05.276Z,22.50
2023-01-29T00:39:29.403Z,27.10
2023-01-29T00:42:09.016Z,20.90
2023-01-29T00:44:41.057Z,28.10
2023-01-29T00:46:53.836Z,22.00
2023-01-29T00:49:08.119Z,22.90
2023-01-29T00:51:20.853Z,23.20
2023-01-29T00:53:33.745Z,24.10
2023-01-29T00:55:48.347Z,23.50
2023-01-29T00:58:01.954Z,23.70
2023-01-29T01:00:18.511Z,25.10
2023-01-29T01:02:53.142Z,27.00
2023-01-29T01:05:18.318Z,26.30
2023-01-29T01:07:30.751Z,26.30
2023-01-29T01:10:01.797Z,24.60
2023-01-29T01:12:13.786Z,22.60
2023-01-29T01:14:26.194Z,24.30
2023-01-29T01:16:38.121Z,26.50
2023-01-29T01:18:50.387Z,23.70
2023-01-29T01:21:02.584Z,26.90
2023-01-29T01:23:14.375Z,28.50
2023-01-29T01:25:27.390Z,26.70
2023-01-29T01:27:41.522Z,24.50
2023-01-29T01:29:53.739Z,27.30
2023-01-29T01:32:06.550Z,27.40
2023-01-29T01:34:18.648Z,31.50
2023-01-29T01:36:32.440Z,30.00
2023-01-29T01:38:44.790Z,29.80
2023-01-29T01:40:56.337Z,24.80
2023-01-29T01:43:10.327Z,25.10
2023-01-29T01:45:36.692Z,23.70
2023-01-29T01:47:59.185Z,24.70
2023-01-29T01:50:24.612Z,26.80
2023-01-29T01:52:42.481Z,25.90
2023-01-29T01:54:54.217Z,29.50
2023-01-29T01:57:25.201Z,28.50
2023-01-29T01:59:40.321Z,26.60
2023-01-29T02:01:54.627Z,24.70
2023-01-29T02:04:29.915Z,26.80
2023-01-29T02:07:02.592Z,22.40
2023-01-29T02:09:35.952Z,22.90
2023-01-29T02:11:49.417Z,24.90
2023-01-29T02:14:01.529Z,25.30
2023-01-29T02:16:13.727Z,23.40
2023-01-29T02:18:26.119Z,23.10
2023-01-29T02:20:41.493Z,22.40
2023-01-29T02:23:18.278Z,22.40
2023-01-29T02:25:49.159Z,23.40
2023-01-29T02:28:24.363Z,23.60
2023-01-29T02:30:41.804Z,21.40
2023-01-29T02:33:22.467Z,20.40
2023-01-29T02:35:40.573Z,25.00
2023-01-29T02:37:58.712Z,22.40
2023-01-29T02:40:36.510Z,25.60
2023-01-29T02:42:57.420Z,23.90
2023-01-29T02:45:28.353Z,22.70
2023-01-29T02:47:39.958Z,21.80
2023-01-29T02:50:04.527Z,22.90
2023-01-29T02:52:36.699Z,24.50
2023-01-29T02:55:03.036Z,24.30
2023-01-29T02:57:29.377Z,22.50
2023-01-29T02:59:48.382Z,22.90
2023-01-29T03:02:07.450Z,25.70
2023-01-29T03:04:33.298Z,26.50
2023-01-29T03:06:53.265Z,28.20
2023-01-29T03:09:11.313Z,25.20
2023-01-29T03:14:13.410Z,24.30
2023-01-29T03:16:35.551Z,21.20
2023-01-29T03:18:56.781Z,26.80
2023-01-29T03:21:34.538Z,23.10
2023-01-29T03:24:06.541Z,24.80
2023-01-29T03:26:41.129Z,23.60
2023-01-29T03:29:12.374Z,26.20
2023-01-29T03:31:46.204Z,26.30
2023-01-29T03:34:05.377Z,26.80
2023-01-29T03:36:23.071Z,26.60
2023-01-29T03:38:35.273Z,25.30
2023-01-29T03:40:58.635Z,26.30
2023-01-29T03:43:35.308Z,29.20
2023-01-29T03:45:54.379Z,30.90
2023-01-29T03:48:20.185Z,24.50
2023-01-29T03:50:52.936Z,26.10
2023-01-29T03:53:17.971Z,26.60
2023-01-29T03:55:35.404Z,23.60
2023-01-29T03:58:07.768Z,28.00
2023-01-29T04:00:27.232Z,25.00
2023-01-29T04:03:00.640Z,23.10
2023-01-29T04:05:21.184Z,25.80
2023-01-29T04:07:45.306Z,24.20
2023-01-29T04:10:09.395Z,29.50
2023-01-29T04:12:28.360Z,26.40
2023-01-29T04:14:40.639Z,25.40
2023-01-29T04:16:57.549Z,28.30
2023-01-29T04:19:20.912Z,27.40
2023-01-29T04:21:37.307Z,23.60
2023-01-29T04:23:48.933Z,26.10
2023-01-29T04:26:19.421Z,27.90
2023-01-29T04:28:42.072Z,26.40
2023-01-29T04:31:09.068Z,25.00
2023-01-29T04:33:46.304Z,27.90
2023-01-29T04:36:19.802Z,22.40
2023-01-29T04:38:47.973Z,24.60
2023-01-29T04:41:16.727Z,22.90
2023-01-29T04:43:40.839Z,27.50
2023-01-29T04:45:59.185Z,21.50
2023-01-29T04:50:40.712Z,23.80
2023-01-29T04:53:25.369Z,24.70
2023-01-29T04:55:47.099Z,20.70
2023-01-29T04:58:23.947Z,23.90
2023-01-29T05:00:42.519Z,24.00
2023-01-29T05:02:54.749Z,28.50
2023-01-29T05:05:08.526Z,24.80
2023-01-29T05:07:23.186Z,26.40
2023-01-29T05:09:37.128Z,32.60
2023-01-29T05:11:50.461Z,29.10
2023-01-29T05:14:05.591Z,38.70
2023-01-29T05:16:23.990Z,56.10
2023-01-29T05:18:36.635Z,30.40
2023-01-29T05:20:50.411Z,43.10
2023-01-29T05:23:02.508Z,30.70
2023-01-29T05:25:24.200Z,25.40
2023-01-29T05:27:56.092Z,30.60
2023-01-29T05:30:10.526Z,37.20
2023-01-29T05:32:22.436Z,26.70
2023-01-29T05:34:34.650Z,23.80
2023-01-29T05:36:46.532Z,29.60
2023-01-29T05:38:58.830Z,28.50
2023-01-29T05:41:10.825Z,30.40
2023-01-29T05:43:25.275Z,30.10
2023-01-29T05:45:37.271Z,30.30
2023-01-29T05:47:49.165Z,31.30
2023-01-29T05:50:01.265Z,48.70
2023-01-29T05:52:12.848Z,31.90
2023-01-29T05:54:24.740Z,33.80
2023-01-29T05:56:36.322Z,26.70
2023-01-29T05:58:48.307Z,25.70
2023-01-29T06:01:14.039Z,27.00
2023-01-29T06:03:26.028Z,25.20
2023-01-29T06:05:38.947Z,25.80
2023-01-29T06:07:51.248Z,26.60
2023-01-29T06:10:04.267Z,27.00
2023-01-29T06:12:16.363Z,26.90
2023-01-29T06:14:28.156Z,29.30
2023-01-29T06:16:39.635Z,49.20
2023-01-29T06:18:51.635Z,39.50
2023-01-29T06:21:05.287Z,33.10
2023-01-29T06:23:17.053Z,29.10
2023-01-29T06:25:28.955Z,27.20
2023-01-29T06:27:40.940Z,28.10
2023-01-29T06:29:53.042Z,28.30
2023-01-29T06:32:05.737Z,26.40
2023-01-29T06:34:18.159Z,26.00
2023-01-29T06:36:29.797Z,30.40
2023-01-29T06:38:41.669Z,31.90
2023-01-29T06:40:54.445Z,30.30
2023-01-29T06:43:06.188Z,34.20
2023-01-29T06:45:18.129Z,34.30
2023-01-29T06:47:29.923Z,41.10
2023-01-29T06:49:42.028Z,35.20
2023-01-29T06:51:54.115Z,52.00
2023-01-29T06:54:08.457Z,36.90
2023-01-29T06:56:20.456Z,35.30
2023-01-29T06:58:32.552Z,49.10
2023-01-29T07:00:44.567Z,35.50
2023-01-29T07:02:56.439Z,36.80
2023-01-29T07:05:08.331Z,39.60
2023-01-29T07:07:20.538Z,35.50
2023-01-29T07:09:32.218Z,44.20
2023-01-29T07:11:44.831Z,38.40
2023-01-29T07:13:57.039Z,38.20
2023-01-29T07:16:09.897Z,33.70
2023-01-29T07:18:22.046Z,38.90
2023-01-29T07:20:33.730Z,52.60
2023-01-29T07:22:45.722Z,37.20
2023-01-29T07:24:57.513Z,46.20
2023-01-29T07:27:09.111Z,44.60
2023-01-29T07:29:20.797Z,48.20
2023-01-29T07:31:33.055Z,42.00
2023-01-29T07:33:45.547Z,42.00
2023-01-29T07:35:57.385Z,43.60
2023-01-29T07:38:10.912Z,48.40
2023-01-29T07:40:23.220Z,60.30
2023-01-29T07:42:35.210Z,87.40
2023-01-29T07:44:47.309Z,245.60
2023-01-29T07:46:58.910Z,149.00
2023-01-29T07:49:11.203Z,76.00
2023-01-29T07:51:22.728Z,95.90
2023-01-29T07:53:34.675Z,128.00
2023-01-29T07:55:46.359Z,113.30
2023-01-29T07:58:02.899Z,164.80
2023-01-29T08:00:15.906Z,136.60
2023-01-29T08:02:27.905Z,88.70
2023-01-29T08:04:40.072Z,408.20
2023-01-29T08:06:52.170Z,307.60
2023-01-29T08:09:04.377Z,141.30
2023-01-29T08:11:16.683Z,176.60
2023-01-29T08:13:28.990Z,152.20
2023-01-29T08:15:47.531Z,195.50
2023-01-29T08:20:12.846Z,137.00
2023-01-29T08:22:24.788Z,149.60
2023-01-29T08:24:47.924Z,182.80
2023-01-29T08:27:06.233Z,382.30
2023-01-29T08:29:18.228Z,288.60
2023-01-29T08:31:30.154Z,233.70
2023-01-29T08:33:42.219Z,173.30
2023-01-29T08:35:54.213Z,227.70
2023-01-29T08:38:06.225Z,182.40
2023-01-29T08:40:18.649Z,194.10
2023-01-29T08:42:30.503Z,190.20
2023-01-29T08:44:42.702Z,180.10
2023-01-29T08:46:54.397Z,162.80
2023-01-29T08:49:06.694Z,165.20
2023-01-29T08:51:18.736Z,139.90
2023-01-29T08:53:31.505Z,127.40
2023-01-29T08:55:43.088Z,145.00
2023-01-29T08:57:55.385Z,177.10
2023-01-29T09:00:10.306Z,196.90
2023-01-29T09:02:22.576Z,131.00
2023-01-29T09:04:34.854Z,122.00
2023-01-29T09:06:46.960Z,146.00
2023-01-29T09:08:58.853Z,178.50
2023-01-29T09:11:11.454Z,129.90
2023-01-29T09:13:23.551Z,92.20
2023-01-29T09:15:35.244Z,227.60
2023-01-29T09:17:49.584Z,183.20
2023-01-29T09:20:01.382Z,197.40
2023-01-29T09:22:13.374Z,193.20
2023-01-29T09:24:25.570Z,418.10
2023-01-29T09:26:37.390Z,207.00
2023-01-29T09:28:49.048Z,193.30
2023-01-29T09:31:03.252Z,148.60
2023-01-29T09:33:15.802Z,168.00
2023-01-29T09:35:27.799Z,189.00
2023-01-29T09:37:39.699Z,196.10
2023-01-29T09:39:52.975Z,230.50
2023-01-29T09:42:25.902Z,150.10
2023-01-29T09:45:10.670Z,363.60
2023-01-29T09:47:26.669Z,266.40
2023-01-29T09:50:06.311Z,230.40
2023-01-29T09:52:26.685Z,338.00
2023-01-29T09:54:50.975Z,270.70
2023-01-29T09:57:03.020Z,217.60
2023-01-29T09:59:19.156Z,280.80
2023-01-29T10:01:47.799Z,223.10
2023-01-29T10:04:29.048Z,234.40
2023-01-29T10:06:56.480Z,336.80
2023-01-29T10:09:25.984Z,277.90
2023-01-29T10:12:01.734Z,286.40
2023-01-29T10:14:38.302Z,202.30
2023-01-29T10:17:12.680Z,235.80
2023-01-29T10:19:45.099Z,260.50
2023-01-29T10:22:22.898Z,211.40
2023-01-29T10:24:41.965Z,305.60
2023-01-29T10:26:55.803Z,320.00
2023-01-29T10:29:08.830Z,265.30
2023-01-29T10:31:33.383Z,189.80
2023-01-29T10:34:02.361Z,154.50
2023-01-29T10:36:23.116Z,151.20
2023-01-29T10:38:46.562Z,162.50
2023-01-29T10:41:04.598Z,158.10
2023-01-29T10:43:33.180Z,164.40
2023-01-29T10:45:56.951Z,185.90
2023-01-29T10:48:30.551Z,301.20
2023-01-29T10:50:47.359Z,284.10
2023-01-29T10:53:12.572Z,402.10
2023-01-29T10:55:49.339Z,210.00
2023-01-29T11:01:50.256Z,130.60
2023-01-29T11:04:08.201Z,141.20
2023-01-29T11:06:37.934Z,151.50
2023-01-29T11:09:04.172Z,112.30
2023-01-29T11:11:18.841Z,117.50
2023-01-29T11:13:36.263Z,119.40
2023-01-29T11:15:52.961Z,130.70
2023-01-29T11:18:16.277Z,113.50
2023-01-29T11:20:32.843Z,123.60
2023-01-29T11:22:56.240Z,127.10
2023-01-29T11:25:19.285Z,143.50
2023-01-29T11:27:35.634Z,116.70
2023-01-29T11:29:48.376Z,147.10
2023-01-29T11:32:06.039Z,133.10
2023-01-29T11:34:21.878Z,119.40
2023-01-29T11:36:39.419Z,100.50
2023-01-29T11:39:18.922Z,130.70
2023-01-29T11:41:50.436Z,109.50
2023-01-29T11:44:17.318Z,117.30
2023-01-29T11:46:29.154Z,108.30
2023-01-29T11:48:51.899Z,105.20
2023-01-29T11:51:06.667Z,242.20
2023-01-29T11:53:43.923Z,178.60
2023-01-29T11:55:56.102Z,220.40
2023-01-29T11:58:17.056Z,197.20
2023-01-29T12:00:33.680Z,201.00
2023-01-29T12:02:49.831Z,150.60
2023-01-29T12:05:13.841Z,194.60
2023-01-29T12:07:25.670Z,165.70
2023-01-29T12:09:39.465Z,136.10
2023-01-29T12:11:52.739Z,165.90
2023-01-29T12:14:15.355Z,185.10
2023-01-29T12:16:44.683Z,178.30
2023-01-29T12:19:21.989Z,158.50
2023-01-29T12:21:51.286Z,155.60
2023-01-29T12:24:26.302Z,139.00
2023-01-29T12:26:49.668Z,127.70
2023-01-29T12:29:20.497Z,134.70
2023-01-29T12:31:55.429Z,135.60
2023-01-29T12:34:25.003Z,141.20
2023-01-29T12:36:53.395Z,144.50
2023-01-29T12:39:05.489Z,325.40
2023-01-29T12:41:37.635Z,178.00
2023-01-29T12:43:55.260Z,137.10
2023-01-29T12:46:16.212Z,148.40
2023-01-29T12:48:30.771Z,140.90
2023-01-29T12:50:50.405Z,147.60
2023-01-29T12:53:07.557Z,137.90
2023-01-29T12:55:30.859Z,134.10
2023-01-29T12:57:54.075Z,136.50
2023-01-29T13:00:15.531Z,143.40
2023-01-29T13:02:36.290Z,146.20
2023-01-29T13:05:01.493Z,157.50
2023-01-29T13:07:19.016Z,153.40
2023-01-29T13:09:34.599Z,147.60
2023-01-29T13:12:01.747Z,143.10
2023-01-29T13:14:25.514Z,133.80
2023-01-29T13:16:48.294Z,127.40
2023-01-29T13:19:05.305Z,129.20
2023-01-29T13:21:31.300Z,99.60
2023-01-29T13:23:47.367Z,133.80
2023-01-29T13:25:59.998Z,141.00
2023-01-29T13:28:25.821Z,162.00
2023-01-29T13:30:37.633Z,147.40
2023-01-29T13:32:54.407Z,153.00
2023-01-29T13:35:14.130Z,134.40
2023-01-29T13:37:37.145Z,143.90
2023-01-29T13:39:52.236Z,111.80
2023-01-29T13:42:17.486Z,117.90
2023-01-29T13:44:36.113Z,142.10
2023-01-29T13:46:53.285Z,140.50
2023-01-29T13:49:05.764Z,131.20
2023-01-29T13:51:23.016Z,248.40
2023-01-29T13:53:40.554Z,215.10
2023-01-29T13:55:54.345Z,165.90
2023-01-29T13:58:14.011Z,182.60
2023-01-29T14:00:34.986Z,262.60
2023-01-29T14:03:11.926Z,165.50
2023-01-29T14:05:29.868Z,181.80
2023-01-29T14:07:51.057Z,152.50
2023-01-29T14:10:15.017Z,150.70
2023-01-29T14:12:35.077Z,121.90
2023-01-29T14:14:59.390Z,134.60
2023-01-29T14:17:12.232Z,113.80
2023-01-29T14:19:30.055Z,115.50
2023-01-29T14:21:53.948Z,111.30
2023-01-29T14:24:43.996Z,108.90
2023-01-29T14:27:00.646Z,90.80
2023-01-29T14:29:21.608Z,104.20
2023-01-29T14:32:20.848Z,100.70
2023-01-29T14:35:13.652Z,117.60
2023-01-29T14:37:34.068Z,104.30
2023-01-29T14:39:52.145Z,137.00
2023-01-29T14:42:19.209Z,114.40
2023-01-29T14:44:44.909Z,112.30
2023-01-29T14:46:58.001Z,103.10
2023-01-29T14:49:11.128Z,106.50
2023-01-29T14:51:27.085Z,117.90
2023-01-29T14:53:55.293Z,125.30
2023-01-29T14:56:26.629Z,118.30
2023-01-29T14:58:56.243Z,175.70
2023-01-29T15:01:24.581Z,138.40
2023-01-29T15:03:51.604Z,127.90
2023-01-29T15:06:07.864Z,130.10
2023-01-29T15:18:06.339Z,108.10
2023-01-29T15:24:13.970Z,111.00
2023-01-29T15:26:28.552Z,128.00
2023-01-29T15:29:04.687Z,110.60
2023-01-29T15:31:38.101Z,132.30
2023-01-29T15:34:17.562Z,143.80
2023-01-29T15:36:42.801Z,137.00
2023-01-29T15:39:23.912Z,106.60
2023-01-29T15:41:40.047Z,124.20
2023-01-29T15:43:58.340Z,102.10
2023-01-29T15:46:28.311Z,132.20
2023-01-29T15:48:45.661Z,92.50
2023-01-29T15:51:00.438Z,111.10
2023-01-29T15:53:30.133Z,126.80
2023-01-29T15:55:45.520Z,101.60
2023-01-29T15:58:00.844Z,103.50
2023-01-29T16:00:41.356Z,94.00
2023-01-29T16:03:01.813Z,88.50
2023-01-29T16:05:18.649Z,90.60
2023-01-29T16:07:32.350Z,91.80
2023-01-29T16:09:44.951Z,99.70
2023-01-29T16:11:59.704Z,98.40
2023-01-29T16:14:16.468Z,104.20
2023-01-29T16:16:29.428Z,100.90
2023-01-29T16:18:57.803Z,94.30
2023-01-29T16:22:03.183Z,86.00
2023-01-29T16:24:32.052Z,94.10
2023-01-29T16:27:11.966Z,95.00
2023-01-29T16:29:32.783Z,94.50
2023-01-29T16:32:00.325Z,95.50
2023-01-29T16:34:26.645Z,84.70
2023-01-29T16:36:49.580Z,92.00
2023-01-29T16:39:19.824Z,98.60
2023-01-29T16:41:38.757Z,90.50
2023-01-29T16:43:55.292Z,104.30
2023-01-29T16:46:24.809Z,99.10
2023-01-29T16:48:37.137Z,92.50
2023-01-29T16:50:55.070Z,95.00
2023-01-29T16:53:53.012Z,88.80
2023-01-29T16:56:09.407Z,91.40
2023-01-29T16:58:31.812Z,92.50
2023-01-29T17:00:57.890Z,101.40
2023-01-29T17:03:19.969Z,91.30
2023-01-29T17:05:38.253Z,102.30
2023-01-29T17:07:57.043Z,82.10
2023-01-29T17:10:19.207Z,89.90
2023-01-29T17:12:37.359Z,97.30
2023-01-29T17:15:02.417Z,112.50
2023-01-29T17:17:19.435Z,97.40
2023-01-29T17:19:35.596Z,99.50
2023-01-29T17:21:48.417Z,95.90
2023-01-29T17:24:01.715Z,102.20
2023-01-29T17:26:20.146Z,99.00
2023-01-29T17:28:34.578Z,294.60
2023-01-29T17:31:05.850Z,157.20
2023-01-29T17:33:23.914Z,110.40
2023-01-29T17:35:37.616Z,101.60
2023-01-29T17:37:51.841Z,112.80
2023-01-29T17:40:23.781Z,114.70
2023-01-29T17:42:41.198Z,95.60
2023-01-29T17:44:53.420Z,107.40
2023-01-29T17:47:11.167Z,106.10
2023-01-29T17:49:26.918Z,101.20
2023-01-29T17:51:40.144Z,104.90
2023-01-29T17:54:00.340Z,98.30
2023-01-29T17:56:15.018Z,101.10
2023-01-29T17:58:27.989Z,98.30
2023-01-29T18:00:41.855Z,91.50
2023-01-29T18:02:55.366Z,91.70
2023-01-29T18:05:12.274Z,90.60
2023-01-29T18:07:30.269Z,106.00
2023-01-29T18:09:57.564Z,102.80
2023-01-29T18:12:13.477Z,95.10
2023-01-29T18:14:48.471Z,88.00
2023-01-29T18:17:03.869Z,98.90
2023-01-29T18:19:23.549Z,96.90
2023-01-29T18:21:49.653Z,101.00
2023-01-29T18:24:02.667Z,124.20
2023-01-29T18:29:51.047Z,82.30
2023-01-29T18:32:04.935Z,92.20
2023-01-29T18:35:31.056Z,115.40
2023-01-29T18:38:23.381Z,101.60
2023-01-29T18:40:40.474Z,102.10
2023-01-29T18:42:55.111Z,117.40
2023-01-29T18:45:15.650Z,146.40
2023-01-29T18:47:31.011Z,138.20
2023-01-29T18:49:52.778Z,119.60
2023-01-29T18:52:07.501Z,97.50
2023-01-29T18:54:24.176Z,86.70
2023-01-29T18:57:06.318Z,118.60
2023-01-29T18:59:15.419Z,110.90
2023-01-29T19:01:28.367Z,94.60
2023-01-29T19:03:44.768Z,100.80
2023-01-29T19:06:03.921Z,88.30
2023-01-29T19:08:18.129Z,104.10
2023-01-29T19:10:34.996Z,95.90
2023-01-29T19:12:48.403Z,87.70
2023-01-29T19:15:06.113Z,79.60
2023-01-29T19:17:21.430Z,102.60
2023-01-29T19:19:38.716Z,81.60
2023-01-29T19:21:56.015Z,76.90
2023-01-29T19:24:12.288Z,91.50
2023-01-29T19:26:25.589Z,87.70
2023-01-29T19:28:38.861Z,75.50
2023-01-29T19:34:29.371Z,78.20
2023-01-29T19:36:41.573Z,88.70
2023-01-29T19:39:42.007Z,85.50
2023-01-29T19:41:54.196Z,74.30
2023-01-29T19:44:41.941Z,73.20
2023-01-29T19:47:02.570Z,80.40
2023-01-29T19:49:17.448Z,80.90
2023-01-29T19:51:33.825Z,75.70
2023-01-29T19:53:52.466Z,71.90
2023-01-29T19:56:19.333Z,75.70
2023-01-29T19:58:34.879Z,76.00
2023-01-29T20:00:58.073Z,79.00
2023-01-29T20:03:11.349Z,87.20
2023-01-29T20:05:29.007Z,76.80
2023-01-29T20:07:45.230Z,71.20
2023-01-29T20:12:33.746Z,67.50
2023-01-29T20:14:49.354Z,74.90
2023-01-29T20:17:06.435Z,70.70
2023-01-29T20:19:20.934Z,70.60
2023-01-29T20:22:08.395Z,78.30
2023-01-29T20:24:22.327Z,72.40
2023-01-29T20:26:52.217Z,74.20
2023-01-29T20:29:12.232Z,72.10
2023-01-29T20:31:41.040Z,66.00
2023-01-29T20:34:01.436Z,71.80
2023-01-29T20:36:18.539Z,68.10
2023-01-29T20:38:34.180Z,63.20
2023-01-29T20:40:47.847Z,72.00
2023-01-29T20:43:12.490Z,69.90
2023-01-29T20:45:26.945Z,79.60
2023-01-29T20:47:44.149Z,71.60
2023-01-29T20:49:58.485Z,69.60
2023-01-29T20:52:13.047Z,68.50
2023-01-29T20:54:30.398Z,68.30
2023-01-29T20:56:46.697Z,76.30
2023-01-29T20:59:02.953Z,68.30
2023-01-29T21:01:21.552Z,67.30
2023-01-29T21:03:41.275Z,73.80
2023-01-29T21:08:35.813Z,70.70
2023-01-29T21:11:22.528Z,60.50
2023-01-29T21:13:52.020Z,60.50
2023-01-29T21:20:45.498Z,60.20
2023-01-29T21:24:23.957Z,62.10
2023-01-29T21:27:16.623Z,61.80
2023-01-29T21:30:01.435Z,62.60
2023-01-29T21:32:18.651Z,62.40
2023-01-29T21:34:32.484Z,61.10
2023-01-29T21:36:51.519Z,65.10
2023-01-29T21:41:55.548Z,56.30
2023-01-29T21:44:08.794Z,60.30
2023-01-29T21:46:23.296Z,56.80
2023-01-29T21:48:40.385Z,61.20
2023-01-29T21:50:57.026Z,59.80
2023-01-29T21:53:13.838Z,58.90
2023-01-29T21:55:30.625Z,58.70
2023-01-29T21:57:46.895Z,53.40
2023-01-29T22:00:01.216Z,54.40
2023-01-29T22:02:23.400Z,54.80
2023-01-29T22:04:39.538Z,59.00
2023-01-29T22:06:53.054Z,53.60
2023-01-29T22:09:07.494Z,56.40
2023-01-29T22:11:22.660Z,55.00
2023-01-29T22:13:39.591Z,57.50
2023-01-29T22:15:58.660Z,57.40
2023-01-29T22:18:11.551Z,49.70
2023-01-29T22:20:31.276Z,59.30
2023-01-29T22:22:43.629Z,59.30
2023-01-29T22:25:00.142Z,54.00
2023-01-29T22:27:17.132Z,55.30
2023-01-29T22:29:29.659Z,58.50
2023-01-29T22:31:44.310Z,55.00
2023-01-29T22:33:57.676Z,54.40
2023-01-29T22:36:12.292Z,59.80
2023-01-29T22:38:27.997Z,48.30
2023-01-29T22:40:51.306Z,54.60
2023-01-29T22:43:05.791Z,55.90
2023-01-29T22:45:20.246Z,59.90
2023-01-29T22:47:34.105Z,66.30
2023-01-29T22:49:50.269Z,55.80
2023-01-29T22:52:11.707Z,81.40
2023-01-29T22:54:26.235Z,62.40
2023-01-29T22:56:40.176Z,56.50
2023-01-29T22:58:54.017Z,62.60
2023-01-29T23:01:06.227Z,54.20
2023-01-29T23:03:18.007Z,55.60
2023-01-29T23:05:29.896Z,55.20
2023-01-29T23:07:42.097Z,57.50
2023-01-29T23:09:54.009Z,54.70
2023-01-29T23:12:06.804Z,56.30
2023-01-29T23:14:18.799Z,55.10
2023-01-29T23:16:30.943Z,55.50
2023-01-29T23:18:43.874Z,49.00
2023-01-29T23:20:59.000Z,58.00
2023-01-29T23:23:10.564Z,53.60
2023-01-29T23:25:22.313Z,51.60
2023-01-29T23:27:34.144Z,55.70
2023-01-29T23:29:47.810Z,58.80
2023-01-29T23:31:59.680Z,51.20
2023-01-29T23:34:11.665Z,57.60
2023-01-29T23:36:23.661Z,58.70
2023-01-29T23:38:35.455Z,54.20
2023-01-29T23:40:47.750Z,55.90
2023-01-29T23:42:59.445Z,54.70
2023-01-29T23:45:11.550Z,59.60
2023-01-29T23:47:23.430Z,56.50
2023-01-29T23:49:35.223Z,55.60
2023-01-29T23:51:48.339Z,56.20
2023-01-29T23:54:00.296Z,52.20
2023-01-29T23:56:12.327Z,52.80
2023-01-29T23:58:25.141Z,54.80
